createdAt,value
2023-05-21T00:01:42.344Z,25.08
2023-05-21T00:04:13.100Z,33.15
2023-05-21T00:06:41.623Z,64.13
2023-05-21T00:09:10.652Z,26.75
2023-05-21T00:11:39.134Z,24.45
2023-05-21T00:14:08.982Z,26.83
2023-05-21T00:16:37.633Z,22.92
2023-05-21T00:19:06.331Z,25.45
2023-05-21T00:21:34.882Z,30.23
2023-05-21T00:24:03.410Z,27.35
2023-05-21T00:26:31.886Z,25.15
2023-05-21T00:29:00.802Z,21.27
2023-05-21T00:31:30.719Z,31.75
2023-05-21T00:33:59.262Z,35.10
2023-05-21T00:36:27.715Z,37.35
2023-05-21T00:38:56.225Z,33.55
2023-05-21T00:41:25.951Z,24.40
2023-05-21T00:43:54.541Z,23.20
2023-05-21T00:46:24.151Z,25.08
2023-05-21T00:48:54.139Z,25.65
2023-05-21T00:51:22.671Z,25.52
2023-05-21T00:53:52.573Z,24.77
2023-05-21T00:56:21.973Z,26.10
2023-05-21T00:58:51.968Z,25.25
2023-05-21T01:01:20.699Z,25.65
2023-05-21T01:03:49.240Z,24.98
2023-05-21T01:06:20.729Z,24.48
2023-05-21T01:08:50.850Z,23.83
2023-05-21T01:11:20.083Z,25.10
2023-05-21T01:13:49.829Z,27.48
2023-05-21T01:16:18.688Z,25.98
2023-05-21T01:18:47.840Z,27.23
2023-05-21T01:21:17.610Z,23.65
2023-05-21T01:23:47.558Z,26.35
2023-05-21T01:26:16.172Z,27.73
2023-05-21T01:28:44.657Z,25.45
2023-05-21T01:31:25.156Z,25.15
2023-05-21T01:33:56.994Z,28.52
2023-05-21T01:36:28.802Z,27.63
2023-05-21T01:39:03.998Z,25.55
2023-05-21T01:41:35.841Z,25.20
2023-05-21T01:44:07.195Z,24.42
2023-05-21T01:46:37.122Z,24.83
2023-05-21T01:49:07.453Z,29.30
2023-05-21T01:51:36.429Z,30.65
2023-05-21T01:54:06.300Z,27.23
2023-05-21T01:56:37.131Z,25.23
2023-05-21T01:59:05.925Z,28.02
2023-05-21T02:01:34.705Z,24.63
2023-05-21T02:04:03.615Z,26.83
2023-05-21T02:06:32.352Z,26.92
2023-05-21T02:09:00.819Z,27.63
2023-05-21T02:11:30.631Z,28.42
2023-05-21T02:13:59.094Z,27.77
2023-05-21T02:16:27.709Z,26.15
2023-05-21T02:18:57.572Z,27.52
2023-05-21T02:21:26.265Z,25.77
2023-05-21T02:23:54.730Z,31.52
2023-05-21T02:26:23.506Z,27.70
2023-05-21T02:28:54.052Z,29.75
2023-05-21T02:31:22.511Z,29.48
2023-05-21T02:33:51.046Z,27.15
2023-05-21T02:36:19.543Z,30.65
2023-05-21T02:38:48.090Z,27.80
2023-05-21T02:41:16.563Z,29.52
2023-05-21T02:43:45.027Z,27.67
2023-05-21T02:46:14.936Z,29.15
2023-05-21T02:48:43.433Z,32.40
2023-05-21T02:51:11.902Z,29.60
2023-05-21T02:53:40.548Z,28.48
2023-05-21T02:56:09.135Z,28.23
2023-05-21T02:58:37.638Z,30.15
2023-05-21T03:01:06.181Z,31.02
2023-05-21T03:03:36.372Z,29.10
2023-05-21T03:06:05.121Z,30.70
2023-05-21T03:08:33.626Z,33.28
2023-05-21T03:11:02.076Z,30.25
2023-05-21T03:13:30.606Z,29.70
2023-05-21T03:15:59.122Z,31.40
2023-05-21T03:18:27.628Z,30.48
2023-05-21T03:20:59.057Z,31.73
2023-05-21T03:23:27.971Z,31.30
2023-05-21T03:25:56.454Z,29.27
2023-05-21T03:28:24.918Z,34.50
2023-05-21T03:30:53.599Z,32.70
2023-05-21T03:33:22.934Z,33.42
2023-05-21T03:35:51.449Z,29.75
2023-05-21T03:38:21.306Z,29.48
2023-05-21T03:40:50.450Z,35.13
2023-05-21T03:43:18.915Z,31.95
2023-05-21T03:45:47.391Z,35.58
2023-05-21T03:48:15.945Z,32.88
2023-05-21T03:50:44.409Z,31.65
2023-05-21T03:53:13.862Z,31.83
2023-05-21T03:55:43.687Z,33.40
2023-05-21T03:58:12.167Z,31.33
2023-05-21T04:00:42.432Z,31.60
2023-05-21T04:03:11.819Z,33.67
2023-05-21T04:05:40.537Z,32.70
2023-05-21T04:08:09.070Z,31.13
2023-05-21T04:10:37.513Z,33.05
2023-05-21T04:13:07.432Z,33.33
2023-05-21T04:15:36.140Z,31.65
2023-05-21T04:18:05.155Z,31.42
2023-05-21T04:20:33.717Z,31.25
2023-05-21T04:23:03.105Z,32.63
2023-05-21T04:25:31.618Z,33.22
2023-05-21T04:28:00.075Z,32.28
2023-05-21T04:30:30.381Z,32.88
2023-05-21T04:33:00.272Z,34.08
2023-05-21T04:35:28.998Z,37.70
2023-05-21T04:37:57.504Z,34.47
2023-05-21T04:40:26.808Z,34.38
2023-05-21T04:42:55.358Z,35.00
2023-05-21T04:45:24.653Z,31.85
2023-05-21T04:47:54.583Z,37.42
2023-05-21T04:50:23.276Z,36.35
2023-05-21T04:52:51.834Z,33.38
2023-05-21T04:55:21.178Z,36.80
2023-05-21T04:57:49.651Z,33.88
2023-05-21T05:00:18.734Z,31.08
2023-05-21T05:02:47.311Z,33.53
2023-05-21T05:05:17.240Z,29.88
2023-05-21T05:07:45.819Z,34.53
2023-05-21T05:10:14.370Z,36.55
2023-05-21T05:12:42.834Z,30.23
2023-05-21T05:15:11.954Z,31.05
2023-05-21T05:17:40.806Z,30.63
2023-05-21T05:20:10.757Z,35.47
2023-05-21T05:22:40.706Z,30.98
2023-05-21T05:25:09.904Z,35.05
2023-05-21T05:27:38.727Z,32.53
2023-05-21T05:30:08.739Z,31.15
2023-05-21T05:32:37.184Z,32.53
2023-05-21T05:35:06.752Z,32.03
2023-05-21T05:37:35.226Z,37.97
2023-05-21T05:40:05.805Z,31.88
2023-05-21T05:42:34.341Z,32.38
2023-05-21T05:45:02.804Z,29.33
2023-05-21T05:47:31.533Z,31.83
2023-05-21T05:50:00.050Z,32.60
2023-05-21T05:52:28.495Z,30.67
2023-05-21T05:54:56.959Z,29.23
2023-05-21T05:57:26.790Z,31.23
2023-05-21T05:59:55.259Z,29.08
2023-05-21T06:02:23.818Z,31.77
2023-05-21T06:04:52.448Z,29.13
2023-05-21T06:07:20.912Z,28.75
2023-05-21T06:09:49.367Z,28.73
2023-05-21T06:12:17.845Z,27.95
2023-05-21T06:14:49.050Z,29.70
2023-05-21T06:17:17.568Z,27.70
2023-05-21T06:19:46.235Z,29.38
2023-05-21T06:22:14.706Z,27.10
2023-05-21T06:24:43.197Z,27.00
2023-05-21T06:27:11.889Z,29.35
2023-05-21T06:29:40.949Z,27.58
2023-05-21T06:32:10.949Z,32.83
2023-05-21T06:34:39.453Z,27.10
2023-05-21T06:37:07.872Z,29.10
2023-05-21T06:39:36.366Z,27.75
2023-05-21T06:42:04.981Z,27.08
2023-05-21T06:44:33.436Z,26.77
2023-05-21T06:47:01.920Z,29.73
2023-05-21T06:49:33.604Z,24.88
2023-05-21T06:52:02.493Z,27.95
2023-05-21T06:54:30.982Z,25.92
2023-05-21T06:56:59.624Z,27.88
2023-05-21T06:59:28.097Z,25.75
2023-05-21T07:01:56.559Z,26.08
2023-05-21T07:04:25.221Z,24.35
2023-05-21T07:06:55.051Z,25.75
2023-05-21T07:09:23.519Z,27.48
2023-05-21T07:11:53.002Z,24.00
2023-05-21T07:14:21.462Z,30.15
2023-05-21T07:16:50.017Z,27.10
2023-05-21T07:19:18.598Z,26.33
2023-05-21T07:21:47.511Z,26.30
2023-05-21T07:24:17.353Z,28.95
2023-05-21T07:26:45.882Z,26.95
2023-05-21T07:29:14.384Z,23.38
2023-05-21T07:31:42.967Z,23.55
2023-05-21T07:34:11.471Z,25.23
2023-05-21T07:36:39.970Z,24.15
2023-05-21T07:39:08.445Z,24.65
2023-05-21T07:41:38.271Z,24.48
2023-05-21T07:44:06.727Z,23.48
2023-05-21T07:46:35.241Z,23.48
2023-05-21T07:49:03.828Z,24.13
2023-05-21T07:51:32.759Z,23.73
2023-05-21T07:54:01.343Z,22.95
2023-05-21T07:56:29.945Z,22.30
2023-05-21T07:58:59.759Z,22.13
2023-05-21T08:01:29.640Z,22.00
2023-05-21T08:04:00.719Z,23.45
2023-05-21T08:06:29.416Z,20.58
2023-05-21T08:08:57.886Z,20.60
2023-05-21T08:11:27.006Z,24.90
2023-05-21T08:13:55.602Z,20.77
2023-05-21T08:16:25.497Z,21.80
2023-05-21T08:18:54.095Z,20.83
2023-05-21T08:21:22.674Z,20.77
2023-05-21T08:23:54.122Z,23.75
2023-05-21T08:26:22.553Z,21.02
2023-05-21T08:28:51.237Z,19.92
2023-05-21T08:31:19.861Z,20.80
2023-05-21T08:33:53.236Z,20.00
2023-05-21T08:36:21.876Z,22.15
2023-05-21T08:38:50.786Z,20.30
2023-05-21T08:41:23.013Z,22.98
2023-05-21T08:43:56.649Z,21.80
2023-05-21T08:46:25.796Z,21.95
2023-05-21T08:48:56.413Z,19.20
2023-05-21T08:51:25.064Z,19.48
2023-05-21T08:53:53.889Z,18.98
2023-05-21T08:56:22.766Z,18.25
2023-05-21T08:58:53.115Z,18.00
2023-05-21T09:01:24.717Z,19.23
2023-05-21T09:04:04.828Z,19.65
2023-05-21T09:06:38.608Z,18.58
2023-05-21T09:09:15.400Z,20.27
2023-05-21T09:11:43.854Z,18.63
2023-05-21T09:14:12.906Z,18.08
2023-05-21T09:16:41.803Z,16.92
2023-05-21T09:19:11.716Z,17.73
2023-05-21T09:21:40.757Z,16.90
2023-05-21T09:24:11.716Z,17.33
2023-05-21T09:26:43.835Z,17.35
2023-05-21T09:29:14.366Z,15.68
2023-05-21T09:31:45.269Z,18.23
2023-05-21T09:34:15.319Z,16.42
2023-05-21T09:36:44.399Z,16.00
2023-05-21T09:39:16.534Z,17.63
2023-05-21T09:41:45.348Z,17.38
2023-05-21T09:44:14.047Z,18.60
2023-05-21T09:46:43.175Z,15.18
2023-05-21T09:49:24.680Z,18.33
2023-05-21T09:51:57.164Z,16.83
2023-05-21T09:54:26.064Z,14.93
2023-05-21T09:56:54.977Z,17.05
2023-05-21T09:59:23.501Z,16.42
2023-05-21T10:01:53.306Z,14.70
2023-05-21T10:04:24.694Z,16.38
2023-05-21T10:06:53.819Z,18.77
2023-05-21T10:09:22.704Z,14.68
2023-05-21T10:11:55.708Z,16.17
2023-05-21T10:14:27.002Z,15.03
2023-05-21T10:16:55.857Z,16.23
2023-05-21T10:19:26.323Z,16.70
2023-05-21T10:21:57.230Z,15.77
2023-05-21T10:24:26.857Z,28.83
2023-05-21T10:26:55.816Z,18.52
2023-05-21T10:29:24.498Z,17.15
2023-05-21T10:31:53.952Z,15.00
2023-05-21T10:34:24.535Z,16.30
2023-05-21T10:36:57.231Z,15.38
2023-05-21T10:39:26.724Z,15.13
2023-05-21T10:42:04.913Z,17.60
2023-05-21T10:44:45.432Z,18.90
2023-05-21T10:47:46.221Z,13.88
2023-05-21T10:50:35.604Z,14.32
2023-05-21T10:53:15.124Z,13.38
2023-05-21T10:55:55.255Z,13.07
2023-05-21T10:58:40.866Z,16.02
2023-05-21T11:01:09.992Z,13.73
2023-05-21T11:03:39.308Z,14.38
2023-05-21T11:06:08.620Z,14.00
2023-05-21T11:08:39.690Z,13.52
2023-05-21T11:11:08.517Z,15.35
2023-05-21T11:13:49.273Z,12.43
2023-05-21T11:16:18.782Z,17.27
2023-05-21T11:19:01.748Z,18.35
2023-05-21T11:21:33.634Z,14.27
2023-05-21T11:24:10.831Z,13.95
2023-05-21T11:27:04.925Z,15.27
2023-05-21T11:32:17.594Z,14.20
2023-05-21T11:34:47.319Z,17.15
2023-05-21T11:37:30.074Z,13.77
2023-05-21T11:40:17.976Z,14.40
2023-05-21T11:42:51.190Z,13.73
2023-05-21T11:45:20.915Z,12.75
2023-05-21T11:47:50.385Z,13.57
2023-05-21T11:50:19.694Z,14.77
2023-05-21T11:52:49.736Z,16.00
2023-05-21T11:55:25.975Z,12.52
2023-05-21T11:57:55.893Z,12.68
2023-05-21T12:00:24.557Z,28.90
2023-05-21T12:02:55.790Z,12.80
2023-05-21T12:05:27.135Z,12.48
2023-05-21T12:07:56.674Z,11.38
2023-05-21T12:10:26.659Z,12.70
2023-05-21T12:12:57.279Z,18.52
2023-05-21T12:15:27.900Z,12.52
2023-05-21T12:17:57.228Z,21.13
2023-05-21T12:20:28.208Z,15.88
2023-05-21T12:22:58.977Z,15.60
2023-05-21T12:25:29.976Z,15.80
2023-05-21T12:27:59.061Z,12.63
2023-05-21T12:30:27.742Z,13.68
2023-05-21T12:33:00.615Z,12.40
2023-05-21T12:35:29.227Z,16.23
2023-05-21T12:37:57.855Z,10.65
2023-05-21T12:40:38.543Z,17.27
2023-05-21T12:43:08.458Z,15.00
2023-05-21T12:45:39.476Z,11.20
2023-05-21T12:48:08.367Z,15.57
2023-05-21T12:50:40.884Z,13.30
2023-05-21T12:53:10.668Z,13.27
2023-05-21T12:55:41.188Z,12.10
2023-05-21T12:58:09.761Z,13.88
2023-05-21T13:00:38.597Z,26.88
2023-05-21T13:03:07.657Z,20.10
2023-05-21T13:05:36.568Z,11.43
2023-05-21T13:08:05.332Z,14.55
2023-05-21T13:10:33.892Z,12.95
2023-05-21T13:13:03.761Z,11.73
2023-05-21T13:15:32.284Z,13.90
2023-05-21T13:18:01.338Z,15.32
2023-05-21T13:20:30.280Z,29.75
2023-05-21T13:22:58.842Z,35.20
2023-05-21T13:25:29.559Z,12.20
2023-05-21T13:27:59.039Z,16.27
2023-05-21T13:30:29.081Z,12.75
2023-05-21T13:32:57.697Z,14.15
2023-05-21T13:35:26.430Z,13.45
2023-05-21T13:37:55.232Z,13.98
2023-05-21T13:40:24.143Z,13.48
2023-05-21T13:42:52.759Z,15.15
2023-05-21T13:45:24.319Z,12.10
2023-05-21T13:47:54.173Z,13.50
2023-05-21T13:50:22.773Z,12.52
2023-05-21T13:52:51.402Z,12.30
2023-05-21T13:55:20.293Z,14.02
2023-05-21T13:57:48.798Z,12.00
2023-05-21T14:00:17.416Z,18.10
2023-05-21T14:02:46.208Z,14.43
2023-05-21T14:05:16.177Z,13.63
2023-05-21T14:07:45.416Z,14.30
2023-05-21T14:10:13.956Z,12.18
2023-05-21T14:12:42.449Z,13.20
2023-05-21T14:15:11.993Z,13.45
2023-05-21T14:17:42.456Z,16.73
2023-05-21T14:20:12.006Z,15.25
2023-05-21T14:22:41.838Z,10.90
2023-05-21T14:25:10.848Z,12.60
2023-05-21T14:27:39.347Z,14.38
2023-05-21T14:30:09.151Z,14.07
2023-05-21T14:32:37.778Z,14.95
2023-05-21T14:35:06.986Z,14.57
2023-05-21T14:37:35.565Z,18.80
2023-05-21T14:40:07.973Z,14.63
2023-05-21T14:42:36.791Z,12.18
2023-05-21T14:45:18.215Z,15.13
2023-05-21T14:47:48.827Z,14.20
2023-05-21T14:50:18.485Z,14.15
2023-05-21T14:52:47.220Z,11.75
2023-05-21T14:55:18.491Z,15.50
2023-05-21T14:57:47.064Z,16.60
2023-05-21T15:00:16.145Z,14.00
2023-05-21T15:02:45.010Z,12.90
2023-05-21T15:05:13.516Z,14.40
2023-05-21T15:07:42.091Z,14.25
2023-05-21T15:10:11.437Z,12.75
2023-05-21T15:12:42.006Z,11.43
2023-05-21T15:15:12.422Z,12.38
2023-05-21T15:17:40.982Z,14.20
2023-05-21T15:20:10.355Z,26.80
2023-05-21T15:22:38.901Z,13.82
2023-05-21T15:25:08.025Z,16.80
2023-05-21T15:27:36.534Z,11.00
2023-05-21T15:30:07.886Z,13.10
2023-05-21T15:32:36.465Z,12.00
2023-05-21T15:35:05.295Z,14.13
2023-05-21T15:37:34.274Z,12.40
2023-05-21T15:40:03.045Z,15.40
2023-05-21T15:42:31.902Z,12.23
2023-05-21T15:45:00.704Z,12.65
2023-05-21T15:47:30.664Z,12.13
2023-05-21T15:50:00.481Z,11.77
2023-05-21T15:52:29.124Z,13.88
2023-05-21T15:54:57.596Z,13.82
2023-05-21T15:57:26.137Z,14.07
2023-05-21T15:59:54.651Z,19.63
2023-05-21T16:02:23.721Z,11.80
2023-05-21T16:04:53.578Z,10.98
2023-05-21T16:07:24.202Z,13.43
2023-05-21T16:09:52.667Z,11.63
2023-05-21T16:12:21.272Z,14.52
2023-05-21T16:14:50.886Z,14.95
2023-05-21T16:17:19.762Z,12.52
2023-05-21T16:19:48.428Z,20.17
2023-05-21T16:22:20.316Z,14.13
2023-05-21T16:24:49.074Z,14.00
2023-05-21T16:27:17.661Z,14.27
2023-05-21T16:29:46.248Z,13.05
2023-05-21T16:32:15.045Z,14.18
2023-05-21T16:34:43.588Z,13.80
2023-05-21T16:37:12.074Z,12.73
2023-05-21T16:39:42.115Z,16.67
2023-05-21T16:42:10.610Z,14.75
2023-05-21T16:44:39.349Z,16.15
2023-05-21T16:47:07.905Z,14.07
2023-05-21T16:49:36.375Z,12.73
2023-05-21T16:52:05.337Z,12.48
2023-05-21T16:54:34.714Z,11.25
2023-05-21T16:57:04.809Z,14.32
2023-05-21T16:59:33.310Z,13.68
2023-05-21T17:02:01.866Z,13.10
2023-05-21T17:04:30.708Z,11.10
2023-05-21T17:06:59.167Z,16.88
2023-05-21T17:09:27.629Z,14.57
2023-05-21T17:11:56.113Z,12.68
2023-05-21T17:14:34.364Z,13.38
2023-05-21T17:17:03.524Z,13.57
2023-05-21T17:19:32.184Z,12.20
2023-05-21T17:22:00.990Z,11.25
2023-05-21T17:24:29.486Z,11.63
2023-05-21T17:26:58.024Z,14.32
2023-05-21T17:29:27.903Z,11.57
2023-05-21T17:31:56.677Z,11.68
2023-05-21T17:34:29.319Z,16.08
2023-05-21T17:36:59.521Z,12.68
2023-05-21T17:39:28.039Z,13.55
2023-05-21T17:41:57.323Z,11.23
2023-05-21T17:44:27.268Z,12.77
2023-05-21T17:46:56.750Z,11.02
2023-05-21T17:49:25.334Z,13.75
2023-05-21T17:51:54.778Z,10.18
2023-05-21T17:54:23.401Z,15.20
2023-05-21T17:56:52.015Z,10.85
2023-05-21T17:59:21.216Z,12.32
2023-05-21T18:01:51.240Z,12.88
2023-05-21T18:04:19.891Z,10.85
2023-05-21T18:06:48.387Z,14.52
2023-05-21T18:09:16.805Z,11.60
2023-05-21T18:11:45.425Z,11.38
2023-05-21T18:14:13.878Z,11.70
2023-05-21T18:16:42.530Z,11.98
2023-05-21T18:19:13.096Z,13.23
2023-05-21T18:21:41.602Z,12.30
2023-05-21T18:24:10.104Z,14.77
2023-05-21T18:26:38.614Z,11.90
2023-05-21T18:29:07.109Z,12.35
2023-05-21T18:31:35.688Z,12.38
2023-05-21T18:34:04.155Z,14.02
2023-05-21T18:36:38.921Z,11.20
2023-05-21T18:39:08.542Z,12.13
2023-05-21T18:41:37.473Z,12.10
2023-05-21T18:44:07.015Z,10.13
2023-05-21T18:46:35.590Z,12.45
2023-05-21T18:49:04.274Z,11.48
2023-05-21T18:51:34.169Z,11.85
2023-05-21T18:54:02.638Z,13.88
2023-05-21T18:56:31.179Z,11.02
2023-05-21T18:58:59.617Z,11.80
2023-05-21T19:01:28.216Z,11.20
2023-05-21T19:03:56.804Z,13.70
2023-05-21T19:06:27.713Z,11.98
2023-05-21T19:08:57.650Z,12.27
2023-05-21T19:11:30.938Z,12.95
2023-05-21T19:14:00.333Z,11.98
2023-05-21T19:16:28.899Z,12.23
2023-05-21T19:18:57.561Z,16.25
2023-05-21T19:21:26.351Z,10.32
2023-05-21T19:23:54.870Z,14.60
2023-05-21T19:26:24.982Z,13.23
2023-05-21T19:28:54.732Z,12.65
2023-05-21T19:31:23.713Z,12.95
2023-05-21T19:33:52.599Z,12.30
2023-05-21T19:36:22.327Z,12.48
2023-05-21T19:38:51.436Z,15.65
2023-05-21T19:41:22.678Z,11.50
2023-05-21T19:43:52.511Z,12.20
2023-05-21T19:46:21.274Z,11.65
2023-05-21T19:48:50.136Z,11.52
2023-05-21T19:51:18.696Z,13.70
2023-05-21T19:53:47.172Z,12.73
2023-05-21T19:56:15.996Z,13.63
2023-05-21T19:58:47.171Z,11.55
2023-05-21T20:01:17.920Z,14.95
2023-05-21T20:03:46.573Z,11.27
2023-05-21T20:06:19.035Z,11.77
2023-05-21T20:08:47.877Z,14.73
2023-05-21T20:11:16.559Z,12.15
2023-05-21T20:13:48.548Z,15.02
2023-05-21T20:16:19.007Z,11.93
2023-05-21T20:18:47.857Z,12.20
2023-05-21T20:21:18.438Z,11.10
2023-05-21T20:23:47.386Z,11.68
2023-05-21T20:26:16.593Z,14.95
2023-05-21T20:28:45.699Z,11.70
2023-05-21T20:31:14.447Z,15.73
2023-05-21T20:33:44.352Z,12.18
2023-05-21T20:36:15.337Z,12.80
2023-05-21T20:38:45.424Z,13.27
2023-05-21T20:41:14.401Z,14.50
2023-05-21T20:43:45.404Z,13.50
2023-05-21T20:46:13.921Z,12.52
2023-05-21T20:48:43.631Z,11.13
2023-05-21T20:51:13.537Z,12.50
2023-05-21T20:53:42.073Z,12.02
2023-05-21T20:56:11.720Z,12.90
2023-05-21T20:58:40.475Z,11.75
2023-05-21T21:01:10.612Z,14.02
2023-05-21T21:03:41.503Z,12.05
2023-05-21T21:06:10.592Z,11.30
2023-05-21T21:08:41.263Z,10.95
2023-05-21T21:11:09.767Z,15.70
2023-05-21T21:13:38.245Z,13.68
2023-05-21T21:16:07.846Z,10.50
2023-05-21T21:18:36.426Z,11.70
2023-05-21T21:21:05.145Z,11.60
2023-05-21T21:23:33.852Z,11.85
2023-05-21T21:26:03.847Z,11.30
2023-05-21T21:28:32.321Z,14.73
2023-05-21T21:31:00.841Z,11.77
2023-05-21T21:33:29.356Z,13.18
2023-05-21T21:35:57.882Z,14.13
2023-05-21T21:38:26.402Z,12.00
2023-05-21T21:40:55.155Z,12.63
2023-05-21T21:43:25.142Z,13.18
2023-05-21T21:45:53.621Z,14.98
2023-05-21T21:48:22.092Z,14.02
2023-05-21T21:50:50.703Z,10.98
2023-05-21T21:53:19.168Z,11.05
2023-05-21T21:55:47.628Z,15.52
2023-05-21T21:58:16.111Z,12.90
2023-05-21T22:00:46.096Z,12.15
2023-05-21T22:03:15.009Z,11.25
2023-05-21T22:05:43.697Z,12.20
2023-05-21T22:08:12.446Z,10.52
2023-05-21T22:10:41.127Z,12.80
2023-05-21T22:13:09.818Z,12.57
2023-05-21T22:15:38.435Z,10.77
2023-05-21T22:18:10.342Z,13.32
2023-05-21T22:20:39.042Z,14.32
2023-05-21T22:23:07.667Z,13.82
2023-05-21T22:25:36.244Z,12.38
2023-05-21T22:28:04.847Z,11.80
2023-05-21T22:30:33.478Z,14.13
2023-05-21T22:33:02.391Z,13.43
2023-05-21T22:35:32.578Z,11.50
2023-05-21T22:38:01.744Z,12.85
2023-05-21T22:40:30.262Z,9.73
2023-05-21T22:42:59.161Z,10.77
2023-05-21T22:45:28.563Z,10.02
2023-05-21T22:48:01.644Z,12.00
2023-05-21T22:50:32.936Z,13.20
2023-05-21T22:53:02.917Z,11.02
2023-05-21T22:55:31.410Z,12.82
2023-05-21T22:57:59.968Z,12.35
2023-05-21T23:00:28.490Z,10.23
2023-05-21T23:02:57.227Z,12.32
2023-05-21T23:05:25.869Z,10.05
2023-05-21T23:07:54.490Z,13.25
2023-05-21T23:10:24.356Z,10.60
2023-05-21T23:12:52.857Z,11.50
2023-05-21T23:15:21.706Z,12.85
2023-05-21T23:17:50.203Z,11.70
2023-05-21T23:20:18.877Z,10.50
2023-05-21T23:22:47.445Z,10.55
2023-05-21T23:25:15.965Z,11.73
2023-05-21T23:27:46.035Z,9.68
2023-05-21T23:30:14.755Z,9.95
2023-05-21T23:32:43.406Z,10.52
2023-05-21T23:35:14.376Z,11.02
2023-05-21T23:37:43.347Z,11.07
2023-05-21T23:40:13.142Z,10.60
2023-05-21T23:42:41.593Z,10.18
2023-05-21T23:45:12.428Z,10.85
2023-05-21T23:47:41.131Z,11.15
2023-05-21T23:50:10.540Z,10.13
2023-05-21T23:52:39.098Z,12.25
2023-05-21T23:55:08.717Z,11.57
2023-05-21T23:57:37.357Z,11.45
